DW2248 Weather Reports


time (UTC)temp
C
wind
direction
speed
KPH
gust
KPH
rain 1hr
cm
rain 24hr
cm
rain mn
cm
humidity
%
barometer
mb
20191017023740 13 84 6.4 16.1 0.00 0.00 0.00 89 1008.6
20191017022240 13 84 6.4 12.9 0.00 0.00 0.00 89 1008.6
20191017012240 13 84 4.8 12.9 0.00 0.00 0.00 94 1008.7
20191017010740 13 84 4.8 12.9 0.00 0.00 0.00 95 1008.8
20191017005240 13 84 1.6 6.4 0.00 0.00 0.00 95 1008.8
20191017002240 13 84 1.6 6.4 0.00 0.00 0.00 95 1008.9
20191017000739 13 84 3.2 9.7 0.00 0.00 0.00 95 1008.9
20191016235240 13 84 3.2 11.3 0.00 0.00 0.00 96 1008.9
20191016233739 13 84 3.2 11.3 0.00 0.00 0.00 96 1008.7
20191016232240 13 84 3.2 11.3 0.00 0.00 0.00 95 1008.8
20191016230740 13 84 4.8 11.3 0.00 0.00 0.00 95 1008.9
20191016225240 13 84 1.6 6.4 0.00 0.00 0.00 95 1009.0
20191016212239 13 84 0.0 4.8 0.00 0.00 0.00 93 1009.1
20191016203739 13 84 1.6 6.4 0.00 0.00 0.00 90 1009.1
20191016202240 13 84 3.2 9.7 0.00 0.00 0.00 90 1009.0
20191016200739 13 84 3.2 6.4 0.00 0.00 0.00 90 1009.0
20191016195239 13 84 4.8 12.9 0.00 0.00 0.00 91 1008.9
20191016193739 13 84 3.2 11.3 0.00 0.00 0.00 91 1008.9
20191016192239 13 84 1.6 6.4 0.00 0.00 0.00 93 1009.0
20191016190739 13 84 4.8 12.9 0.00 0.00 0.00 93 1009.0
20191016183739 13 84 1.6 6.4 0.00 0.00 0.00 94 1009.1
20191016180740 13 84 1.6 6.4 0.00 0.00 0.00 94 1009.1
20191016173739 13 84 1.6 9.7 0.00 0.00 0.00 91 1009.3
20191016165239 15 84 6.4 16.1 0.00 0.00 0.00 84 1009.1
20191016162239 15 84 6.4 11.3 0.00 0.00 0.00 83 1008.9
20191016160740 15 84 4.8 12.9 0.00 0.00 0.00 84 1008.9
20191016155239 15 84 8.0 12.9 0.00 0.00 0.00 84 1008.8
20191016153739 14 84 8.0 19.3 0.00 0.00 0.00 84 1008.9
20191016152239 14 84 4.8 12.9 0.00 0.00 0.00 86 1008.9
20191016150739 14 84 8.0 19.3 0.00 0.00 0.00 85 1009.0
20191016145239 14 84 4.8 16.1 0.00 0.00 0.00 86 1008.9
20191016143738 14 84 3.2 12.9 0.00 0.00 0.00 89 1008.9
20191016135239 14 84 3.2 9.7 0.00 0.00 0.00 89 1009.0
20191016133739 14 84 6.4 16.1 0.00 0.00 0.00 88 1009.1
20191016132239 14 84 3.2 11.3 0.00 0.00 0.00 89 1009.1
20191016130739 13 84 4.8 9.7 0.00 0.00 0.00 90 1009.1
20191016125239 13 84 4.8 11.3 0.00 0.00 0.00 91 1009.1
20191016123739 13 84 3.2 6.4 0.00 0.00 0.00 93 1009.1
20191016115239 13 84 4.8 22.5 0.00 0.00 0.00 90 1009.6
20191016112238 14 84 11.3 29.0 0.00 0.00 0.00 83 1009.9
20191016110738 14 84 9.7 22.5 0.00 0.00 0.00 81 1010.0
20191016105238 15 84 11.3 33.8 0.00 0.00 0.00 76 1010.1
20191016103738 15 84 12.9 29.0 0.00 0.00 0.00 73 1010.0
20191016100738 15 84 9.7 24.1 0.00 0.00 0.00 73 1010.1
20191016095238 15 84 9.7 24.1 0.00 0.00 0.00 73 1010.2
20191016092238 14 84 11.3 30.6 0.00 0.00 0.00 78 1010.4
20191016090739 13 84 11.3 22.5 0.00 0.00 0.00 80 1010.3
20191016085238 13 84 9.7 19.3 0.00 0.00 0.00 81 1010.5
20191016083738 12 84 6.4 12.9 0.00 0.00 0.00 82 1010.6
20191016080738 12 84 6.4 17.7 0.00 0.00 0.00 82 1010.7
20191016073738 12 84 6.4 16.1 0.00 0.00 0.00 83 1010.6
20191016072238 11 84 4.8 11.3 0.00 0.00 0.00 84 1010.7
20191016065238 11 84 3.2 11.3 0.00 0.00 0.00 86 1010.4
20191016063738 11 84 3.2 11.3 0.00 0.00 0.00 87 1010.5
20191016060738 11 84 3.2 6.4 0.00 0.00 0.00 87 1010.4
20191016053738 11 84 3.2 6.4 0.00 0.00 0.00 87 1010.2
20191016052238 11 84 3.2 9.7 0.00 0.00 0.00 87 1010.2
20191016040738 11 84 3.2 9.7 0.00 0.00 0.00 87 1010.0
20191016035238 11 84 4.8 11.3 0.00 0.00 0.00 87 1010.1